Weather at Flugplatz Thun

Public forecast

Using degrees Celsius for public forecast. Weather courtesy of forecast.io.

Closest aviation weather report (METAR) to Flugplatz Thun

Closest report is Bern Belp Airport, 10.4 nm (19.2 km) NNW. Retrieved 2020/11/26 09:20 UTC (0 seconds ago):

LSZB 260920Z VRB02KT 0500 R14/1200U FZFG VV003 M01/M01 Q1024 NOSIG

Closest aviation forecast (TAF) to Flugplatz Thun

Closest forecast is Meiringen Airport, 21.0 nm (38.8 km) E. Retrieved 2020/11/26 10:00 UTC (0 seconds ago):

TAF LSMM 260925Z 2610/2716 VRB03KT CAVOK PROB30 2612/2617 7000 SCT004 BECMG 2616/2618 8000 NSC PROB40 2617/2706 0600 FZFG VV002 BECMG 2707/2709 CAVOK PROB30 2711/2716 7000 SCT005